»·PEaware :: USC243 KSAN-KFSU

USC243 :: KSAN-KFSU

FLIGHT INFORMATION

Flight Status: Arrived
Operator: Unknown
More flights by this operator :: More flights under this callsign
Pilot: Andy P. (22680)
Aircraft: GATES LEARJET LEARJET 35/36
(LJ35)
More flights by this aircraft type
Origin: KSAN San Diego Intl-Lindbergh
United States
Destination: KFSU Ft Sumner Mun
United States
More flights between these airports :: More routes between these airports
Route: ZZOOO2 IPL J18 SJN J74 CNX
File this flight plan on PilotEdge
Remarks:
Altitude:
(Current/Filed)
39,000ft
Speed:
(Current/Filed)
465kts
Departed: 01-Mar-19 01:13 PM
Arrived: 01-Mar-19 02:39 PM
Distance/Time
Traveled:
656nm/1:26
Distance/Time
To Go:
Arrived

Flight Plot

Page will automatically refresh every two minutes.

Flight plan parsing failed; only flown route is shown


Map Options




Map Legend


Flown Route
Filed Route
Departure Airport
Arrival Airport
Navaid (VOR, NDB)
Fix

Horizontal Profiles

Position Reports

Time Latitude Longitude Heading Altitude Ground
Speed
01-Mar-19 12:57 32.734570 -117.179520 14 17ft 0kts
01-Mar-19 12:58 32.734570 -117.179520 14 17ft 0kts
01-Mar-19 12:59 32.734570 -117.179520 14 17ft 0kts
01-Mar-19 13:00 32.734570 -117.179520 14 17ft 0kts
01-Mar-19 13:01 32.734570 -117.179520 14 17ft 0kts
01-Mar-19 13:02 32.734570 -117.179520 14 17ft 0kts
01-Mar-19 13:03 32.734570 -117.179520 14 17ft 0kts
01-Mar-19 13:04 32.734570 -117.179520 14 17ft 0kts
01-Mar-19 13:05 32.734570 -117.179520 14 17ft 0kts
01-Mar-19 13:06 32.734570 -117.179520 14 17ft 0kts
01-Mar-19 13:07 32.734570 -117.179520 14 17ft 0kts
01-Mar-19 13:08 32.733957 -117.179385 199 17ft 11kts
01-Mar-19 13:09 32.731487 -117.176396 106 17ft 18kts
01-Mar-19 13:10 32.731131 -117.175455 154 17ft 0kts
01-Mar-19 13:11 32.730861 -117.175342 169 17ft 9kts
01-Mar-19 13:12 32.735748 -117.197896 287 427ft 178kts
01-Mar-19 13:13 32.752559 -117.258529 286 2832ft 221kts
01-Mar-19 13:14 32.733451 -117.317056 192 6400ft 235kts
01-Mar-19 13:15 32.675560 -117.277266 147 10236ft 258kts
01-Mar-19 13:16 32.628107 -117.211723 96 13950ft 307kts
01-Mar-19 13:17 32.619554 -117.100741 100 17024ft 367kts
01-Mar-19 13:18 32.606948 -116.971321 99 19688ft 424kts
01-Mar-19 13:19 32.620161 -116.819626 76 20767ft 505kts
01-Mar-19 13:20 32.642080 -116.652086 84 22840ft 530kts
01-Mar-19 13:21 32.659197 -116.475945 84 24914ft 541kts
01-Mar-19 13:22 32.676488 -116.295075 83 26377ft 559kts
01-Mar-19 13:23 32.693964 -116.109697 83 27640ft 570kts
01-Mar-19 13:24 32.710580 -115.930386 82 29185ft 571kts
01-Mar-19 13:25 32.727909 -115.741771 83 30552ft 576kts
01-Mar-19 13:26 32.744883 -115.552368 82 31963ft 576kts
01-Mar-19 13:27 32.754300 -115.362517 89 33280ft 576kts
01-Mar-19 13:28 32.757143 -115.172722 88 34507ft 576kts
01-Mar-19 13:29 32.760920 -114.983013 88 35716ft 574kts
01-Mar-19 13:30 32.764642 -114.793775 87 36873ft 570kts
01-Mar-19 13:31 32.768087 -114.605843 88 37942ft 567kts
01-Mar-19 13:32 32.770736 -114.419204 88 38871ft 566kts
01-Mar-19 13:34 32.773081 -114.231369 88 39049ft 567kts
01-Mar-19 13:35 32.775141 -114.044876 88 39049ft 564kts
01-Mar-19 13:36 32.791881 -113.861223 76 39051ft 558kts
01-Mar-19 13:37 32.817805 -113.679094 76 39051ft 557kts
01-Mar-19 13:38 32.843332 -113.498281 76 39051ft 555kts
01-Mar-19 13:39 32.868672 -113.316906 76 39051ft 555kts
01-Mar-19 13:40 32.893649 -113.136183 76 39043ft 554kts
01-Mar-19 13:41 32.918364 -112.955366 76 39043ft 553kts
01-Mar-19 13:42 32.942856 -112.774148 76 39043ft 553kts
01-Mar-19 13:43 32.988497 -112.606310 40 39060ft 514kts
01-Mar-19 13:44 33.083922 -112.482199 37 39068ft 510kts
01-Mar-19 13:45 33.175495 -112.351501 40 39068ft 513kts
01-Mar-19 13:46 33.265287 -112.219120 40 39049ft 513kts
01-Mar-19 13:47 33.354864 -112.086279 40 39049ft 513kts
01-Mar-19 13:48 33.441242 -111.949205 55 39049ft 532kts
01-Mar-19 13:49 33.500619 -111.786049 58 39056ft 535kts
01-Mar-19 13:50 33.559848 -111.621992 58 39055ft 535kts
01-Mar-19 13:51 33.618916 -111.458375 58 39063ft 534kts
01-Mar-19 13:52 33.677706 -111.294854 58 39093ft 533kts
01-Mar-19 13:53 33.736319 -111.131058 58 39108ft 533kts
01-Mar-19 13:53 33.784965 -110.994490 58 39119ft 532kts
01-Mar-19 13:55 33.852436 -110.804101 58 39136ft 532kts
01-Mar-19 13:56 33.910356 -110.639721 58 39141ft 532kts
01-Mar-19 13:56 33.958151 -110.503431 57 39151ft 531kts
01-Mar-19 13:57 34.015501 -110.339120 57 39166ft 531kts
01-Mar-19 13:59 34.081999 -110.147553 57 39179ft 531kts
01-Mar-19 13:59 34.129327 -110.010500 57 39181ft 531kts
01-Mar-19 14:00 34.185758 -109.846301 57 39191ft 531kts
01-Mar-19 14:01 34.242117 -109.681451 57 39181ft 531kts
01-Mar-19 14:02 34.298510 -109.515631 57 39159ft 532kts
01-Mar-19 14:03 34.354521 -109.350044 57 39141ft 533kts
01-Mar-19 14:04 34.410519 -109.183606 57 39138ft 534kts
01-Mar-19 14:05 34.428493 -109.000651 87 39143ft 565kts
01-Mar-19 14:06 34.423790 -108.810265 85 39144ft 564kts
01-Mar-19 14:07 34.421924 -108.620518 84 39145ft 563kts
01-Mar-19 14:08 34.420383 -108.430755 84 39146ft 563kts
01-Mar-19 14:09 34.418667 -108.241084 84 39124ft 563kts
01-Mar-19 14:10 34.416681 -108.051676 84 39124ft 562kts
01-Mar-19 14:11 34.414425 -107.862806 84 39124ft 561kts
01-Mar-19 14:12 34.411873 -107.673693 84 39119ft 561kts
01-Mar-19 14:13 34.409045 -107.485224 84 38831ft 565kts
01-Mar-19 14:14 34.405867 -107.293699 85 36757ft 565kts
01-Mar-19 14:15 34.402425 -107.104173 86 34744ft 562kts
01-Mar-19 14:16 34.398699 -106.914281 87 32743ft 569kts
01-Mar-19 14:17 34.394578 -106.720769 88 30669ft 574kts
01-Mar-19 14:18 34.390160 -106.527949 89 28567ft 571kts
01-Mar-19 14:19 34.385482 -106.336764 90 26390ft 567kts
01-Mar-19 14:20 34.380591 -106.148821 91 24481ft 552kts
01-Mar-19 14:21 34.375555 -105.966014 91 22678ft 537kts
01-Mar-19 14:22 34.370377 -105.787621 91 20807ft 523kts
01-Mar-19 14:23 34.372494 -105.617233 83 18974ft 493kts
01-Mar-19 14:24 34.386859 -105.452046 82 17372ft 493kts
01-Mar-19 14:25 34.400365 -105.294675 82 15610ft 443kts
01-Mar-19 14:26 34.412801 -105.148548 82 14289ft 437kts
01-Mar-19 14:27 34.425216 -105.000731 82 13027ft 442kts
01-Mar-19 14:28 34.437070 -104.856576 82 12237ft 428kts
01-Mar-19 14:29 34.448683 -104.713795 82 10872ft 413kts
01-Mar-19 14:30 34.458322 -104.593258 82 9703ft 316kts
01-Mar-19 14:31 34.465799 -104.490206 88 7827ft 297kts
01-Mar-19 14:32 34.463765 -104.397146 92 7205ft 264kts
01-Mar-19 14:33 34.458218 -104.307987 93 6743ft 258kts
01-Mar-19 14:34 34.460492 -104.228285 59 5887ft 214kts
01-Mar-19 14:35 34.491721 -104.174869 52 5332ft 177kts
01-Mar-19 14:36 34.515443 -104.177484 250 4647ft 143kts
01-Mar-19 14:37 34.490337 -104.213454 226 4168ft 108kts
01-Mar-19 14:38 34.482892 -104.223282 314 4168ft 8kts
01-Mar-19 14:39 34.487065 -104.225997 1 4168ft 16kts
01-Mar-19 14:40 34.489230 -104.224054 86 4168ft 0kts

Navigation Log

Ident Type
Flight plan parsing failed, navigation log unavailable